Time;durP1;ratioP1;P1;durP2;ratioP2;P2;SDS_P1;SDS_P2;PMS_P1;PMS_P2;Temp;Humidity;BMP_temperature;BMP_pressure;BME280_temperature;BME280_humidity;BME280_pressure;Samples;Min_cycle;Max_cycle;Signal;HPM_P1;HPM_P2
2021/10/08 00:00:23;;;;;;;3.60;3.30;;;;;;;12.67;81.43;99782.69;4979626;28;104077;-62
2021/10/08 00:02:52;;;;;;;3.10;2.90;;;;;;;12.75;80.60;99788.38;4979343;28;103581;-66
2021/10/08 00:05:21;;;;;;;3.28;2.97;;;;;;;12.75;80.51;99777.75;4999237;28;102608;-66
2021/10/08 00:07:50;;;;;;;3.80;3.50;;;;;;;12.72;79.87;99773.50;5001621;28;102934;-65
2021/10/08 00:10:18;;;;;;;3.25;2.95;;;;;;;12.72;80.56;99781.47;4986275;28;103301;-66
2021/10/08 00:12:46;;;;;;;3.17;2.97;;;;;;;12.69;80.64;99775.50;4974593;28;102742;-66
2021/10/08 00:15:14;;;;;;;4.05;3.75;;;;;;;12.62;80.36;99768.91;5001168;28;102540;-65
2021/10/08 00:17:42;;;;;;;4.97;4.20;;;;;;;12.17;82.57;99776.16;4974379;28;102678;-62
2021/10/08 00:20:11;;;;;;;3.70;3.40;;;;;;;12.38;82.24;99771.28;4983094;28;104454;-61
2021/10/08 00:22:41;;;;;;;3.27;2.97;;;;;;;12.44;81.76;99781.50;4983709;28;103275;-62
2021/10/08 00:25:10;;;;;;;3.60;3.30;;;;;;;12.47;81.35;99780.47;4988969;28;102669;-65
2021/10/08 00:27:38;;;;;;;3.60;3.30;;;;;;;12.48;80.94;99771.56;5004575;28;102909;-61
2021/10/08 00:30:07;;;;;;;4.23;3.93;;;;;;;12.30;80.90;99778.00;4989026;28;103419;-65
2021/10/08 00:32:35;;;;;;;5.50;5.00;;;;;;;12.05;81.32;99774.25;4995268;28;103191;-61
2021/10/08 00:35:04;;;;;;;4.75;4.35;;;;;;;11.79;82.97;99772.31;4994950;28;102642;-65
2021/10/08 00:37:32;;;;;;;4.20;3.90;;;;;;;12.00;82.62;99771.03;4984062;28;102605;-65
2021/10/08 00:40:01;;;;;;;6.20;5.60;;;;;;;11.54;82.91;99772.03;4962559;28;103239;-66
2021/10/08 00:42:30;;;;;;;4.10;3.80;;;;;;;11.74;83.26;99770.88;4990294;28;103047;-62
2021/10/08 00:44:58;;;;;;;4.60;4.20;;;;;;;11.84;82.32;99780.00;4980297;28;103053;-61
2021/10/08 00:47:26;;;;;;;4.63;4.22;;;;;;;11.93;81.61;99771.50;4992858;28;103911;-61
2021/10/08 00:49:54;;;;;;;5.05;4.50;;;;;;;11.84;81.26;99770.28;4981379;28;103047;-61
2021/10/08 00:52:22;;;;;;;4.13;3.83;;;;;;;11.83;81.47;99768.56;4967728;28;103204;-60
2021/10/08 00:54:50;;;;;;;5.00;4.60;;;;;;;11.70;81.19;99762.31;4988053;28;103147;-61
2021/10/08 00:57:20;;;;;;;5.05;4.55;;;;;;;11.53;82.31;99770.38;4982077;28;102613;-65
2021/10/08 00:59:48;;;;;;;4.88;4.47;;;;;;;11.37;82.83;99775.69;4967603;28;103299;-65
2021/10/08 01:02:16;;;;;;;4.50;4.10;;;;;;;11.62;82.32;99770.66;4971942;28;103318;-66
2021/10/08 01:04:45;;;;;;;4.13;3.80;;;;;;;11.69;81.81;99771.19;4997516;28;102540;-65
2021/10/08 01:07:13;;;;;;;3.97;3.67;;;;;;;11.71;81.32;99764.00;4979377;28;102742;-65
2021/10/08 01:09:41;;;;;;;3.80;3.50;;;;;;;11.70;80.94;99757.00;4991390;28;103268;-66
2021/10/08 01:12:09;;;;;;;5.38;4.97;;;;;;;11.35;80.62;99756.41;4975374;28;103180;-65
2021/10/08 01:14:40;;;;;;;5.32;4.82;;;;;;;11.14;83.49;99756.81;4970283;28;102676;-66
2021/10/08 01:17:13;;;;;;;4.43;4.13;;;;;;;11.36;82.83;99758.13;4993208;28;103729;-65
2021/10/08 01:19:43;;;;;;;4.40;4.00;;;;;;;11.49;82.23;99758.25;4994236;28;104889;-65
2021/10/08 01:22:13;;;;;;;4.30;3.90;;;;;;;11.48;81.40;99756.56;4967180;28;103246;-65
2021/10/08 01:24:45;;;;;;;3.90;3.60;;;;;;;11.57;81.09;99756.00;4972743;28;102959;-65
2021/10/08 01:27:18;;;;;;;5.35;4.95;;;;;;;11.29;81.90;99761.22;4995564;28;103685;-65
2021/10/08 01:29:51;;;;;;;4.53;4.13;;;;;;;11.38;81.58;99752.75;4992614;28;103289;-65
2021/10/08 01:32:24;;;;;;;4.10;3.80;;;;;;;11.46;81.21;99753.13;4976822;28;103410;-65
2021/10/08 01:34:52;;;;;;;5.63;4.22;;;;;;;11.44;80.55;99747.94;4999238;28;102551;-65
2021/10/08 01:37:22;;;;;;;4.70;4.10;;;;;;;11.44;81.08;99747.94;4979878;28;102814;-65
2021/10/08 01:39:51;;;;;;;4.65;4.25;;;;;;;11.39;81.39;99751.81;4982148;28;103468;-64
2021/10/08 01:42:20;;;;;;;4.10;3.80;;;;;;;11.47;81.06;99744.25;4979835;28;103268;-65
2021/10/08 01:44:48;;;;;;;4.90;4.50;;;;;;;11.48;81.09;99751.28;4992024;28;102845;-65
2021/10/08 01:47:19;;;;;;;4.22;3.92;;;;;;;11.44;80.83;99758.53;4974453;28;102904;-65
2021/10/08 01:49:48;;;;;;;4.13;3.83;;;;;;;11.42;81.01;99756.91;4976289;28;103251;-65
2021/10/08 01:52:17;;;;;;;4.40;4.10;;;;;;;11.44;80.48;99744.44;4969558;28;103012;-66
2021/10/08 01:54:50;;;;;;;3.93;3.63;;;;;;;11.44;80.63;99747.09;4984064;28;102901;-65
2021/10/08 01:57:18;;;;;;;4.33;3.93;;;;;;;11.47;80.54;99744.25;4968317;28;102770;-64
2021/10/08 01:59:48;;;;;;;3.90;3.60;;;;;;;11.47;80.37;99745.13;4976989;28;103204;-65
2021/10/08 02:02:18;;;;;;;4.77;4.43;;;;;;;11.46;80.46;99743.41;4968543;28;103389;-65
2021/10/08 02:04:48;;;;;;;5.38;4.88;;;;;;;11.36;79.82;99741.41;4967706;28;102799;-64
2021/10/08 02:07:17;;;;;;;6.22;5.72;;;;;;;11.07;81.48;99751.88;4968843;28;103063;-65
2021/10/08 02:09:45;;;;;;;6.15;5.55;;;;;;;11.15;81.94;99753.22;4993491;28;102659;-64
2021/10/08 02:12:15;;;;;;;5.18;4.78;;;;;;;11.22;81.77;99750.16;5002095;28;103193;-65
2021/10/08 02:14:43;;;;;;;4.78;4.38;;;;;;;11.28;81.66;99751.59;4975240;28;103018;-64
2021/10/08 02:17:12;;;;;;;4.60;4.30;;;;;;;11.28;81.12;99749.78;4955166;28;102995;-64
2021/10/08 02:19:41;;;;;;;4.47;4.17;;;;;;;11.29;80.91;99755.91;4955136;28;104380;-65
2021/10/08 02:22:10;;;;;;;4.10;3.80;;;;;;;11.27;81.13;99749.88;4942851;28;105185;-65
2021/10/08 02:24:45;;;;;;;4.57;4.28;;;;;;;11.25;80.56;99752.63;4957876;28;102719;-66
2021/10/08 02:27:14;;;;;;;4.60;4.20;;;;;;;11.27;80.51;99755.16;4983316;28;103001;-66
2021/10/08 02:29:43;;;;;;;4.63;4.28;;;;;;;11.22;80.71;99750.16;4975634;28;103368;-65
2021/10/08 02:32:14;;;;;;;4.40;4.00;;;;;;;11.21;80.55;99758.16;4942655;28;103451;-65
2021/10/08 02:34:42;;;;;;;4.30;4.00;;;;;;;11.17;80.66;99746.91;4958165;28;103194;-65
2021/10/08 02:37:10;;;;;;;5.80;5.40;;;;;;;11.07;80.50;99746.59;4955832;28;103089;-65
2021/10/08 02:39:38;;;;;;;5.80;5.40;;;;;;;10.99;80.88;99754.13;4959556;28;103422;-65
2021/10/08 02:42:06;;;;;;;5.00;4.60;;;;;;;11.02;81.69;99755.75;4956516;28;104203;-65
2021/10/08 02:44:38;;;;;;;5.20;4.80;;;;;;;11.06;81.52;99755.47;4946785;28;102823;-65
2021/10/08 02:47:06;;;;;;;5.30;4.90;;;;;;;11.08;81.12;99763.31;4960160;28;103362;-65
2021/10/08 02:49:34;;;;;;;5.30;4.90;;;;;;;11.07;81.68;99756.31;4952522;28;104124;-65
2021/10/08 02:52:04;;;;;;;5.13;4.72;;;;;;;11.10;81.47;99757.94;4970075;28;105338;-65
2021/10/08 02:54:34;;;;;;;5.10;4.70;;;;;;;11.14;81.32;99762.97;4978565;28;102919;-65
2021/10/08 02:57:02;;;;;;;5.30;4.90;;;;;;;11.16;81.23;99762.88;4979533;28;102707;-65
2021/10/08 02:59:31;;;;;;;5.07;4.68;;;;;;;11.12;80.84;99758.69;4980529;28;103241;-61
2021/10/08 03:02:00;;;;;;;5.65;5.25;;;;;;;11.14;81.05;99741.81;4967332;28;103235;-65
2021/10/08 03:04:29;;;;;;;7.00;6.40;;;;;;;10.92;80.89;99751.91;4974049;28;102846;-65
2021/10/08 03:06:57;;;;;;;6.53;6.03;;;;;;;10.99;81.99;99755.91;4978924;28;102705;-64
2021/10/08 03:09:26;;;;;;;5.80;5.32;;;;;;;11.04;81.81;99752.06;4992193;28;103311;-62
2021/10/08 03:11:54;;;;;;;6.72;6.13;;;;;;;11.01;81.72;99736.38;4998002;28;103620;-63
2021/10/08 03:14:22;;;;;;;5.80;5.40;;;;;;;10.99;82.11;99748.84;4983880;28;103023;-62
2021/10/08 03:16:52;;;;;;;5.38;4.97;;;;;;;11.02;81.64;99753.94;4987475;28;104070;-62
2021/10/08 03:19:21;;;;;;;6.35;5.85;;;;;;;10.95;81.07;99757.88;4993930;28;103243;-62
2021/10/08 03:21:50;;;;;;;7.75;7.10;;;;;;;10.71;82.23;99758.41;4986213;28;103040;-61
2021/10/08 03:24:18;;;;;;;7.15;6.55;;;;;;;10.61;83.97;99755.41;4984980;28;103135;-60
2021/10/08 03:26:46;;;;;;;5.67;5.17;;;;;;;10.77;82.92;99763.38;5001356;28;102686;-60
2021/10/08 03:29:15;;;;;;;6.10;5.60;;;;;;;10.77;82.52;99760.72;4989712;28;104640;-64
2021/10/08 03:31:43;;;;;;;5.67;5.27;;;;;;;10.83;82.18;99763.88;4994318;28;103245;-60
2021/10/08 03:34:11;;;;;;;5.70;5.30;;;;;;;10.82;81.51;99761.31;4987428;28;102749;-60
2021/10/08 03:36:45;;;;;;;5.87;5.37;;;;;;;10.69;81.26;99763.81;4989732;28;104936;-61
2021/10/08 03:39:19;;;;;;;5.00;4.63;;;;;;;10.74;81.49;99761.75;4992833;28;103692;-61
2021/10/08 03:41:49;;;;;;;4.60;4.30;;;;;;;10.77;80.66;99766.00;4992881;28;103468;-64
2021/10/08 03:44:18;;;;;;;7.75;7.05;;;;;;;10.07;79.75;99763.72;5006108;28;102999;-65
2021/10/08 03:46:50;;;;;;;6.70;6.10;;;;;;;9.99;82.98;99757.97;4998925;28;102808;-62
2021/10/08 03:49:22;;;;;;;6.43;5.93;;;;;;;10.25;82.46;99768.88;4995313;28;103761;-61
2021/10/08 03:51:53;;;;;;;6.50;6.00;;;;;;;10.37;82.29;99775.28;4995349;28;103204;-65
2021/10/08 03:54:22;;;;;;;5.30;4.80;;;;;;;10.46;81.91;99764.22;4988729;28;102839;-64
2021/10/08 03:56:50;;;;;;;5.07;4.70;;;;;;;10.49;81.61;99766.69;4997421;28;102630;-64
2021/10/08 03:59:19;;;;;;;4.80;4.45;;;;;;;10.50;81.15;99770.19;4990078;28;104022;-64
2021/10/08 04:01:49;;;;;;;7.05;6.55;;;;;;;10.31;80.47;99765.03;4992979;28;103344;-64
2021/10/08 04:04:17;;;;;;;6.90;6.40;;;;;;;10.13;81.55;99768.69;4986894;28;103273;-64
2021/10/08 04:06:46;;;;;;;5.47;5.03;;;;;;;10.23;81.96;99777.81;4995780;28;103274;-64
2021/10/08 04:09:16;;;;;;;5.75;5.35;;;;;;;10.31;81.15;99775.59;4998420;28;103278;-64
2021/10/08 04:11:47;;;;;;;5.53;5.13;;;;;;;10.33;80.84;99781.69;4992470;28;103267;-67
2021/10/08 04:14:15;;;;;;;5.78;5.38;;;;;;;10.33;80.86;99781.69;4996337;28;102715;-64
2021/10/08 04:16:44;;;;;;;5.63;5.22;;;;;;;10.32;80.62;99779.97;5007051;28;102785;-64
2021/10/08 04:19:12;;;;;;;5.18;4.78;;;;;;;10.33;81.00;99781.69;4993612;28;103264;-63
2021/10/08 04:21:42;;;;;;;5.50;5.10;;;;;;;10.38;81.02;99779.63;4987256;28;105257;-62
2021/10/08 04:24:10;;;;;;;5.68;5.28;;;;;;;10.42;81.58;99773.22;4990757;28;102593;-62
2021/10/08 04:26:39;;;;;;;6.63;6.03;;;;;;;10.45;81.86;99765.16;4972949;28;103297;-63
2021/10/08 04:29:08;;;;;;;6.18;5.68;;;;;;;10.40;81.37;99764.53;4998737;27;104139;-62
2021/10/08 04:31:38;;;;;;;7.32;6.72;;;;;;;10.38;81.23;99771.72;4990385;28;103434;-62
2021/10/08 04:34:06;;;;;;;6.95;6.35;;;;;;;10.26;82.13;99767.94;4974202;28;102638;-63
2021/10/08 04:36:38;;;;;;;7.20;6.60;;;;;;;10.26;81.75;99777.66;4987762;28;104090;-64
2021/10/08 04:39:07;;;;;;;8.60;7.90;;;;;;;10.04;81.67;99777.06;4985155;28;105139;-63
2021/10/08 04:41:35;;;;;;;8.40;7.70;;;;;;;9.93;82.83;99774.16;4992462;28;103211;-63
2021/10/08 04:44:06;;;;;;;7.25;6.72;;;;;;;10.10;82.96;99766.19;5002444;28;102682;-63
2021/10/08 04:46:34;;;;;;;6.50;6.00;;;;;;;10.24;82.66;99774.25;4994567;28;103104;-63
2021/10/08 04:49:02;;;;;;;6.10;5.60;;;;;;;10.22;82.61;99774.31;4978417;28;103381;-63
2021/10/08 04:51:35;;;;;;;6.53;6.03;;;;;;;10.28;82.64;99767.84;4980438;28;103542;-63
2021/10/08 04:54:04;;;;;;;5.43;5.03;;;;;;;10.28;82.63;99770.50;4988172;28;103066;-62
2021/10/08 04:56:33;;;;;;;6.07;5.63;;;;;;;10.31;82.51;99770.31;4987222;28;102773;-62
2021/10/08 04:59:02;;;;;;;6.53;5.93;;;;;;;10.29;82.18;99773.06;4991470;28;105088;-63
2021/10/08 05:01:31;;;;;;;6.93;6.43;;;;;;;10.18;83.01;99769.28;4990127;28;104280;-63
2021/10/08 05:04:00;;;;;;;6.30;5.80;;;;;;;10.26;82.88;99764.44;4991400;28;103339;-64
2021/10/08 05:06:30;;;;;;;6.50;5.97;;;;;;;10.31;82.65;99765.91;4989918;28;104151;-64
2021/10/08 05:08:58;;;;;;;6.57;6.07;;;;;;;10.31;82.33;99765.03;4979254;28;106531;-64
2021/10/08 05:11:26;;;;;;;6.85;6.35;;;;;;;10.12;83.22;99769.59;4984602;28;103227;-64
2021/10/08 05:13:54;;;;;;;6.33;5.83;;;;;;;10.22;82.77;99770.81;4972415;28;102745;-62
2021/10/08 05:16:22;;;;;;;6.07;5.67;;;;;;;10.27;82.72;99768.81;4985811;28;103775;-62
2021/10/08 05:18:53;;;;;;;6.50;6.00;;;;;;;10.28;82.50;99771.34;4974820;28;104589;-62
2021/10/08 05:21:25;;;;;;;6.65;6.15;;;;;;;10.29;82.36;99766.94;4979452;28;103538;-62
2021/10/08 05:23:53;;;;;;;6.60;6.10;;;;;;;10.29;82.44;99773.06;4982461;28;103416;-62
2021/10/08 05:26:22;;;;;;;7.20;6.60;;;;;;;10.26;82.33;99772.38;5005521;28;102659;-63
2021/10/08 05:28:50;;;;;;;6.45;5.93;;;;;;;10.27;82.48;99774.91;4973509;28;104202;-64
2021/10/08 05:31:18;;;;;;;6.13;5.72;;;;;;;10.26;82.17;99767.09;4967829;28;103274;-63
2021/10/08 05:33:47;;;;;;;6.60;6.10;;;;;;;10.25;82.09;99775.94;4961391;28;102675;-64
2021/10/08 05:36:17;;;;;;;6.07;5.57;;;;;;;10.27;81.67;99779.38;4953579;28;102888;-66
2021/10/08 05:38:46;;;;;;;6.60;6.10;;;;;;;10.30;81.87;99773.94;4970069;28;105919;-64
2021/10/08 05:41:15;;;;;;;9.40;8.52;;;;;;;10.13;81.41;99779.25;4975804;28;103386;-64
2021/10/08 05:43:45;;;;;;;7.88;7.28;;;;;;;10.16;82.29;99787.03;4966040;28;103033;-63
2021/10/08 05:46:14;;;;;;;9.25;8.45;;;;;;;9.89;82.17;99784.88;4968703;28;102888;-62
2021/10/08 05:48:42;;;;;;;6.97;6.40;;;;;;;10.04;82.95;99782.34;4963387;28;103206;-62
2021/10/08 05:51:11;;;;;;;7.47;6.90;;;;;;;10.15;82.20;99783.53;4977404;28;103264;-64
2021/10/08 05:53:40;;;;;;;6.40;5.90;;;;;;;10.22;82.37;99778.75;4969776;28;104020;-64
2021/10/08 05:56:09;;;;;;;6.40;5.80;;;;;;;10.31;81.89;99775.59;4977581;28;104049;-64
2021/10/08 05:58:39;;;;;;;6.70;6.10;;;;;;;10.39;81.94;99783.97;4965714;28;104121;-65
2021/10/08 06:01:07;;;;;;;8.02;7.22;;;;;;;10.42;81.74;99783.81;4974433;28;103284;-66
2021/10/08 06:03:37;;;;;;;6.75;6.05;;;;;;;10.46;82.08;99791.50;4981753;28;102645;-66
2021/10/08 06:06:05;;;;;;;7.85;7.15;;;;;;;10.45;81.88;99788.91;4982557;28;103813;-66
2021/10/08 06:08:33;;;;;;;7.07;6.40;;;;;;;10.50;81.79;99796.63;4978706;28;104217;-66
2021/10/08 06:11:03;;;;;;;6.53;6.03;;;;;;;10.56;81.43;99796.25;4979045;28;104239;-65
2021/10/08 06:13:32;;;;;;;6.82;6.22;;;;;;;10.62;81.77;99785.34;4981497;28;102721;-65
2021/10/08 06:16:01;;;;;;;6.70;6.10;;;;;;;10.66;81.53;99792.19;4979774;28;103019;-65
2021/10/08 06:18:29;;;;;;;6.43;5.72;;;;;;;10.71;81.31;99785.72;4974797;28;103264;-65
2021/10/08 06:21:01;;;;;;;9.07;8.18;;;;;;;10.61;81.19;99792.41;4973831;28;103172;-63
2021/10/08 06:23:30;;;;;;;7.23;6.53;;;;;;;10.57;82.81;99784.75;4990890;28;102988;-63
2021/10/08 06:25:59;;;;;;;6.63;6.13;;;;;;;10.71;82.80;99795.41;4979609;28;102781;-62
2021/10/08 06:28:29;;;;;;;12.02;10.82;;;;;;;10.80;81.67;99789.63;4984456;28;103296;-62
2021/10/08 06:30:57;;;;;;;13.80;12.40;;;;;;;10.87;81.60;99790.97;4975590;28;105022;-62
2021/10/08 06:33:26;;;;;;;15.98;14.38;;;;;;;10.77;81.17;99800.38;4963123;28;103199;-62
2021/10/08 06:35:54;;;;;;;12.38;11.18;;;;;;;10.90;81.89;99796.94;4990964;28;104352;-63
2021/10/08 06:38:24;;;;;;;15.77;14.18;;;;;;;11.02;81.26;99801.56;4978501;28;105682;-63
2021/10/08 06:40:53;;;;;;;12.48;11.30;;;;;;;11.18;80.92;99812.09;4982534;28;103262;-65
2021/10/08 06:43:21;;;;;;;11.00;9.90;;;;;;;11.26;81.19;99806.34;4997146;28;102979;-65
2021/10/08 06:46:03;;;;;;;12.00;10.90;;;;;;;11.24;81.12;99813.53;4975678;28;102677;-66
2021/10/08 06:48:32;;;;;;;10.95;9.85;;;;;;;11.37;81.29;99801.28;4984749;28;104147;-65
2021/10/08 06:51:00;;;;;;;16.60;15.03;;;;;;;11.53;81.39;99810.06;4970620;28;102581;-63
2021/10/08 06:53:28;;;;;;;19.25;17.35;;;;;;;11.61;81.13;99805.16;4969490;28;103001;-63
2021/10/08 06:55:57;;;;;;;15.32;13.88;;;;;;;11.65;80.96;99796.09;4975704;28;102842;-65
2021/10/08 06:58:45;;;;;;;17.00;15.20;;;;;;;11.49;81.48;99800.59;4993554;28;103045;-63
2021/10/08 07:01:15;;;;;;;13.80;12.50;;;;;;;11.52;82.64;99797.75;4977119;28;103113;-63
2021/10/08 07:03:44;;;;;;;11.43;10.40;;;;;;;11.33;84.44;99799.78;4999574;28;102627;-62
2021/10/08 07:06:14;;;;;;;13.98;12.52;;;;;;;11.10;85.86;99798.47;4978447;28;103628;-62
2021/10/08 07:08:43;;;;;;;12.53;11.23;;;;;;;11.33;85.28;99800.63;4996863;28;103798;-62
2021/10/08 07:11:12;;;;;;;11.93;10.82;;;;;;;11.95;84.07;99793.44;4973074;28;103295;-62
2021/10/08 07:13:41;;;;;;;10.85;9.80;;;;;;;12.53;82.00;99796.84;4986234;28;102787;-62
2021/10/08 07:16:09;;;;;;;11.73;10.52;;;;;;;12.73;80.64;99779.66;4998074;28;103029;-62
2021/10/08 07:18:49;;;;;;;10.13;9.25;;;;;;;13.15;79.06;99790.19;5001337;28;103234;-64
2021/10/08 07:21:18;;;;;;;10.93;9.93;;;;;;;13.60;77.14;99788.91;4978863;28;103546;-65
2021/10/08 07:23:47;;;;;;;10.68;9.77;;;;;;;13.69;76.75;99790.97;4990589;28;102623;-63
2021/10/08 07:26:17;;;;;;;12.05;10.95;;;;;;;13.83;76.82;99792.66;5001616;28;104080;-63
2021/10/08 07:28:46;;;;;;;12.90;11.27;;;;;;;13.86;76.58;99800.44;5003905;28;103292;-62
2021/10/08 07:31:14;;;;;;;12.57;11.38;;;;;;;14.21;74.44;99800.63;5000119;28;103269;-63
2021/10/08 07:33:43;;;;;;;11.32;10.23;;;;;;;14.56;72.55;99795.53;4999913;28;102845;-65
2021/10/08 07:36:12;;;;;;;11.32;10.32;;;;;;;14.90;71.96;99793.00;5007947;28;102598;-65
2021/10/08 07:38:40;;;;;;;10.43;9.60;;;;;;;15.23;70.72;99788.81;4990962;28;104003;-65
2021/10/08 07:41:09;;;;;;;11.23;10.23;;;;;;;15.05;71.25;99791.00;4996484;28;103229;-65
2021/10/08 07:43:40;;;;;;;10.18;9.38;;;;;;;15.05;72.03;99791.00;5004729;28;102629;-65
2021/10/08 07:46:09;;;;;;;11.98;10.77;;;;;;;13.89;72.17;99797.56;4986935;28;103566;-66
2021/10/08 07:48:38;;;;;;;13.88;11.82;;;;;;;13.33;76.78;99788.13;4993631;28;104275;-65
2021/10/08 07:51:07;;;;;;;12.02;10.93;;;;;;;13.31;77.12;99790.84;5000994;28;102976;-66
2021/10/08 07:53:36;;;;;;;10.82;9.85;;;;;;;14.48;74.36;99788.09;4987321;28;102859;-64
2021/10/08 07:56:05;;;;;;;10.23;9.32;;;;;;;14.93;71.35;99789.25;4996385;28;102894;-64
2021/10/08 07:58:33;;;;;;;10.57;9.68;;;;;;;14.87;70.52;99779.06;4991293;28;103267;-65
2021/10/08 08:01:04;;;;;;;10.07;9.07;;;;;;;14.36;73.96;99784.50;4998878;28;103321;-65
2021/10/08 08:03:32;;;;;;;10.82;9.82;;;;;;;14.76;71.76;99792.28;4987926;28;102719;-65
2021/10/08 08:06:01;;;;;;;9.35;8.55;;;;;;;15.80;70.38;99779.13;4987858;28;104093;-63
2021/10/08 08:08:31;;;;;;;11.00;10.00;;;;;;;14.95;72.40;99787.31;4993553;28;103371;-62
2021/10/08 08:10:59;;;;;;;9.85;8.85;;;;;;;15.43;71.27;99781.03;4999601;28;103225;-62
2021/10/08 08:13:27;;;;;;;10.45;9.50;;;;;;;15.60;70.09;99780.66;4986097;28;102679;-63
2021/10/08 08:15:55;;;;;;;10.57;9.57;;;;;;;15.23;69.45;99783.47;4996856;28;102689;-63
2021/10/08 08:18:23;;;;;;;10.00;9.10;;;;;;;15.84;68.53;99782.38;4986932;28;103236;-63
2021/10/08 08:20:52;;;;;;;11.57;10.48;;;;;;;14.95;70.67;99784.66;5000600;28;102997;-64
2021/10/08 08:23:20;;;;;;;10.23;9.27;;;;;;;15.34;70.04;99792.38;5000438;28;102691;-63
2021/10/08 08:25:52;;;;;;;9.32;8.52;;;;;;;15.84;70.11;99782.38;4993539;28;102885;-63
2021/10/08 08:28:21;;;;;;;9.52;8.73;;;;;;;16.06;69.04;99780.59;4982302;28;104365;-63
2021/10/08 08:30:49;;;;;;;7.80;7.20;;;;;;;16.95;66.36;99774.41;4981903;28;103319;-63
2021/10/08 08:33:18;;;;;;;8.73;8.02;;;;;;;16.88;66.14;99773.19;4980802;28;102667;-63
2021/10/08 08:35:46;;;;;;;9.90;8.93;;;;;;;16.43;66.06;99773.22;4994833;28;102920;-63
2021/10/08 08:38:14;;;;;;;9.03;8.33;;;;;;;17.20;65.73;99768.75;4989801;28;103323;-63
2021/10/08 08:40:43;;;;;;;10.50;9.60;;;;;;;15.56;69.97;99765.00;4996292;28;102860;-63
2021/10/08 08:43:12;;;;;;;;;;;;;;;16.02;72.47;99764.97;4995406;28;102627;-63
2021/10/08 08:45:41;;;;;;;10.20;8.35;;;;;;;15.97;69.58;99765.31;4999395;28;102603;-63
2021/10/08 08:48:12;;;;;;;9.57;8.73;;;;;;;14.51;73.28;99770.09;4998773;28;103286;-63
2021/10/08 08:50:44;;;;;;;9.83;9.00;;;;;;;14.09;75.96;99782.91;4988589;28;103665;-63
2021/10/08 08:53:12;;;;;;;9.95;9.02;;;;;;;13.86;77.48;99777.38;4994134;28;102659;-64
2021/10/08 08:55:41;;;;;;;9.30;8.50;;;;;;;14.38;76.02;99773.75;4995280;28;102773;-64
2021/10/08 08:58:09;;;;;;;6.63;6.07;;;;;;;14.68;76.31;99768.06;4998597;28;103315;-64
2021/10/08 09:00:39;;;;;;;10.10;8.67;;;;;;;14.63;75.44;99764.84;4972614;28;102704;-63
2021/10/08 09:03:14;;;;;;;9.87;8.90;;;;;;;13.76;78.32;99770.13;4988085;28;102945;-64
2021/10/08 09:05:46;;;;;;;9.63;8.73;;;;;;;13.73;79.18;99768.53;4981590;28;102688;-64
2021/10/08 09:08:15;;;;;;;8.70;7.93;;;;;;;14.10;78.50;99769.50;4998354;28;102633;-63
2021/10/08 09:10:46;;;;;;;8.97;8.13;;;;;;;14.25;76.95;99762.25;4999330;28;103352;-64
2021/10/08 09:13:15;;;;;;;11.27;10.07;;;;;;;13.46;80.16;99761.59;4990428;28;102577;-64
2021/10/08 09:15:48;;;;;;;9.83;8.93;;;;;;;13.33;80.40;99773.03;4994860;28;103566;-64
2021/10/08 09:18:19;;;;;;;10.37;9.03;;;;;;;13.87;79.66;99767.56;4985006;28;104117;-65
2021/10/08 09:21:07;;;;;;;10.60;9.50;;;;;;;13.90;80.02;99767.38;4960802;28;103392;-65
2021/10/08 09:23:38;;;;;;;9.53;8.63;;;;;;;14.24;78.68;99761.41;4981372;28;102948;-65
2021/10/08 09:26:15;;;;;;;10.80;8.77;;;;;;;14.76;76.45;99763.03;4996844;28;103919;-64
2021/10/08 09:28:55;;;;;;;8.47;7.70;;;;;;;14.66;75.88;99764.63;4995726;28;104031;-64
2021/10/08 09:31:39;;;;;;;9.83;8.83;;;;;;;13.60;79.11;99769.47;4993136;28;103341;-64
2021/10/08 09:34:12;;;;;;;9.23;8.40;;;;;;;13.95;79.28;99766.09;4981020;28;102775;-64
2021/10/08 09:36:42;;;;;;;9.70;8.70;;;;;;;13.73;80.19;99771.19;4975143;28;102772;-64
2021/10/08 09:39:19;;;;;;;9.90;8.90;;;;;;;13.85;80.06;99769.50;4987849;28;103281;-64
2021/10/08 09:41:55;;;;;;;9.53;8.50;;;;;;;14.07;79.97;99767.03;4998176;28;103259;-64
2021/10/08 09:44:25;;;;;;;10.20;9.20;;;;;;;14.28;78.23;99762.91;5001750;28;102747;-65
2021/10/08 09:47:09;;;;;;;9.63;8.83;;;;;;;14.05;80.09;99768.97;4992786;28;103946;-64
2021/10/08 09:49:37;;;;;;;9.40;8.50;;;;;;;14.15;78.98;99767.34;4984153;28;103341;-64
2021/10/08 09:52:26;;;;;;;8.43;7.53;;;;;;;14.36;78.29;99771.22;4993041;28;103229;-64
2021/10/08 09:54:55;;;;;;;11.40;9.17;;;;;;;14.22;78.68;99773.97;4993456;28;102723;-64
2021/10/08 09:57:24;;;;;;;9.57;8.57;;;;;;;14.18;80.27;99771.59;4998692;28;104326;-64
2021/10/08 09:59:54;;;;;;;10.07;8.80;;;;;;;14.29;79.05;99769.91;5004079;28;103320;-64
2021/10/08 10:02:23;;;;;;;9.80;8.90;;;;;;;14.33;80.05;99759.94;5003641;28;103345;-64
2021/10/08 10:04:54;;;;;;;10.23;8.67;;;;;;;14.10;80.23;99760.66;4994548;28;102732;-64
2021/10/08 10:07:27;;;;;;;9.00;8.13;;;;;;;14.22;80.86;99757.16;4989782;28;102604;-64
2021/10/08 10:09:55;;;;;;;10.70;8.23;;;;;;;14.17;81.26;99752.19;5002011;28;104548;-64
2021/10/08 10:12:36;;;;;;;7.80;7.10;;;;;;;14.62;79.79;99749.88;4981619;28;103347;-64
2021/10/08 10:15:06;;;;;;;10.07;8.70;;;;;;;14.22;80.34;99752.69;4998391;28;102655;-64
2021/10/08 10:17:37;;;;;;;9.47;8.53;;;;;;;14.52;79.81;99755.84;4991041;28;102819;-64
2021/10/08 10:20:08;;;;;;;9.27;8.37;;;;;;;14.15;79.66;99756.72;4986126;28;103496;-64
2021/10/08 10:22:37;;;;;;;9.53;8.53;;;;;;;14.22;80.13;99763.34;4994784;28;103182;-64
2021/10/08 10:25:08;;;;;;;9.00;8.20;;;;;;;14.57;80.26;99754.69;5001957;28;102633;-64
2021/10/08 10:27:36;;;;;;;8.73;7.83;;;;;;;14.12;81.33;99753.47;5004197;28;103807;-64
2021/10/08 10:30:05;;;;;;;10.03;7.43;;;;;;;15.04;79.21;99758.22;4972973;28;103263;-64
2021/10/08 10:32:36;;;;;;;9.53;8.60;;;;;;;14.29;79.90;99756.59;4984841;28;103121;-64
2021/10/08 10:35:04;;;;;;;10.17;8.77;;;;;;;14.07;80.83;99753.75;4993244;28;103019;-64
2021/10/08 10:37:38;;;;;;;9.77;8.57;;;;;;;14.45;80.37;99751.09;5003633;28;102831;-64
2021/10/08 10:40:20;;;;;;;11.07;8.60;;;;;;;14.32;80.42;99748.44;4983437;28;104165;-64
2021/10/08 10:43:29;;;;;;;9.63;8.63;;;;;;;14.30;79.19;99755.66;4984437;28;103315;-64
2021/10/08 10:46:31;;;;;;;9.30;8.47;;;;;;;14.43;80.87;99761.81;4987413;28;102765;-64
2021/10/08 10:49:36;;;;;;;6.83;6.00;;;;;;;14.94;77.95;99757.19;5003422;28;104478;-64
2021/10/08 10:52:26;;;;;;;10.83;8.13;;;;;;;15.29;78.19;99751.94;4986626;28;103598;-64
2021/10/08 10:55:03;;;;;;;9.60;8.70;;;;;;;14.95;79.07;99758.06;4981892;28;104192;-65
2021/10/08 10:58:00;;;;;;;12.13;8.63;;;;;;;14.65;79.39;99744.34;4996506;28;102559;-65
2021/10/08 11:00:32;;;;;;;9.37;8.43;;;;;;;14.23;80.21;99750.91;4992478;28;102743;-65
2021/10/08 11:03:19;;;;;;;10.87;8.37;;;;;;;14.75;79.53;99742.69;4981107;28;103364;-65
2021/10/08 11:06:09;;;;;;;9.23;7.90;;;;;;;14.82;79.40;99738.66;4996481;28;103197;-64
2021/10/08 11:09:17;;;;;;;9.97;8.90;;;;;;;14.75;80.33;99745.34;4996961;28;102760;-65
2021/10/08 11:11:45;;;;;;;16.23;8.37;;;;;;;14.88;79.81;99740.81;4983238;28;102753;-63
2021/10/08 11:14:18;;;;;;;10.07;9.10;;;;;;;14.75;78.93;99742.69;4992917;28;103350;-63
2021/10/08 11:16:48;;;;;;;10.00;9.00;;;;;;;14.44;80.33;99741.41;4996896;28;103455;-64
2021/10/08 11:19:40;;;;;;;9.33;7.80;;;;;;;15.00;78.75;99734.59;4996732;28;102696;-66
2021/10/08 11:22:11;;;;;;;9.83;8.43;;;;;;;15.34;78.24;99738.25;4972367;28;103054;-67
2021/10/08 11:24:39;;;;;;;10.87;8.07;;;;;;;15.58;77.31;99726.63;4986216;28;103964;-65
2021/10/08 11:27:07;;;;;;;11.27;9.37;;;;;;;15.12;77.22;99730.19;4998886;28;102650;-63
2021/10/08 11:29:38;;;;;;;13.10;8.90;;;;;;;14.97;78.35;99730.38;4969257;28;102612;-65
2021/10/08 11:32:09;;;;;;;11.87;9.20;;;;;;;14.57;79.17;99733.41;4972295;28;103187;-67
2021/10/08 11:34:51;;;;;;;9.03;7.63;;;;;;;15.05;78.54;99729.78;4979631;28;104335;-65
2021/10/08 11:37:21;;;;;;;11.47;9.17;;;;;;;15.17;78.74;99728.88;4987602;28;102595;-65